Have a Safe July 4th! 

Flight Track Log - Related Links

Times and Time Zones

All times are in EDT time to prevent confusion due to time zone crossing. See the MRA637 flight status page for this flight to view local times or setup timezone preferences in your user account.

Time Position Orientation Groundspeed Altitude Reporting Facility
EDT Latitude Longitude Course Direction KTS MPH feet Rate Location/Type
Fri 08:23:12 PM 36.4364 -99.4347 94° East 159 183 4,300  Level Kansas City Center
Fri 08:24:12 PM 36.4342 -99.3933 97° East 137 158 5,000 750 Climbing Kansas City Center
Fri 08:25:12 PM 36.4297 -99.3492 91° East 123 142 5,800 850 Climbing Kansas City Center
Fri 08:26:12 PM 36.4292 -99.3078 93° East 123 142 6,700 550 Climbing Kansas City Center
Fri 08:27:12 PM 36.4272 -99.2561 95° East 123 142 6,900 99 Climbing Kansas City Center
Fri 08:28:13 PM 36.4233 -99.1964 92° East 144 166 6,900  Level Kansas City Center
Fri 08:29:12 PM 36.4214 -99.1394 90° East 157 181 6,900  Level Kansas City Center
Fri 08:30:12 PM 36.4214 -99.0828 92° East 163 188 6,900 50 Level Kansas City Center
Fri 08:31:12 PM 36.4194 -99.0258 90° East 163 188 7,000 50 Climbing Kansas City Center
Fri 08:32:12 PM 36.4194 -98.9689 92° East 163 188 7,000  Level Kansas City Center
Fri 08:33:12 PM 36.4175 -98.9122 88° East 163 188 7,000  Level Kansas City Center
Fri 08:34:12 PM 36.4192 -98.8606 92° East 158 182 7,000  Level Kansas City Center
Fri 08:35:12 PM 36.4172 -98.7986 92° East 158 182 7,000  Level Kansas City Center
Fri 08:36:12 PM 36.4153 -98.7417 92° East 158 182 7,000  Level Kansas City Center
Fri 08:37:12 PM 36.4133 -98.6794 93° East 158 182 7,000  Level Kansas City Center
Fri 08:38:12 PM 36.4111 -98.6228 93° East 158 182 7,000  Level Kansas City Center
Fri 08:39:12 PM 36.4089 -98.5631 90° East 163 188 7,000  Level Kansas City Center
Fri 08:40:12 PM 36.4089 -98.5039 95° East 163 188 7,000 -150 Level Kansas City Center
Fri 08:41:12 PM 36.4044 -98.4442 90° East 163 188 6,700 -400 Descending Kansas City Center
Fri 08:42:12 PM 36.4044 -98.3822 93° East 169 194 6,200 -450 Descending Kansas City Center
Fri 08:43:12 PM 36.4022 -98.3203 93° East 174 200 5,800 -400 Descending Kansas City Center
Fri 08:44:12 PM 36.4000 -98.2608 95° East 174 200 5,400 -400 Descending Kansas City Center
Fri 08:45:12 PM 36.3958 -98.1986 90° East 179 206 5,000 -400 Descending Kansas City Center
Fri 08:46:12 PM 36.3956 -98.1367 93° East 179 206 4,600 -400 Descending Kansas City Center
Fri 08:47:12 PM 36.3931 -98.0772 85° East 179 206 4,200 -350 Descending Kansas City Center
Fri 08:48:12 PM 36.3969 -98.0181 93° East 179 206 3,900 -350 Descending Kansas City Center
Fri 08:49:12 PM 36.3947 -97.9561 88° East 179 206 3,500 -450 Descending Kansas City Center
Fri 08:50:12 PM 36.3964 -97.8942 85° East 179 206 3,000 -500 Descending Kansas City Center
Fri 08:51:12 PM 36.4003 -97.8350 91° East 179 206 2,500 -550 Descending Kansas City Center
Fri 08:52:12 PM 36.3997 -97.7756 91° East 167 192 1,900 -600 Descending Kansas City Center

Login

Don't have an account? Register now (free) for customized features, flight alerts, and more!